Time;durP1;ratioP1;P1;durP2;ratioP2;P2;SDS_P1;SDS_P2;PMS_P1;PMS_P2;Temp;Humidity;BMP_temperature;BMP_pressure;BME280_temperature;BME280_humidity;BME280_pressure;Samples;Min_cycle;Max_cycle;Signal;HPM_P1;HPM_P2
2022/04/01 00:00:01;;;;;;;19.90;11.65;;;;;;;2.66;64.95;99419.91;4837773;29;20166;-80
2022/04/01 00:02:27;;;;;;;20.55;11.80;;;;;;;2.79;65.25;99433.84;4853065;29;20125;-79
2022/04/01 00:04:53;;;;;;;20.45;11.93;;;;;;;2.92;64.70;99429.78;4854641;29;20076;-81
2022/04/01 00:07:19;;;;;;;23.13;12.63;;;;;;;2.77;64.96;99420.09;4844345;29;20553;-79
2022/04/01 00:09:45;;;;;;;22.13;12.57;;;;;;;2.80;64.96;99403.84;4837534;29;20049;-82
2022/04/01 00:12:11;;;;;;;25.30;13.18;;;;;;;3.06;64.72;99439.41;4852635;29;20076;-80
2022/04/01 00:14:38;;;;;;;20.75;11.73;;;;;;;2.95;64.89;99421.22;4853663;29;20101;-81
2022/04/01 00:17:05;;;;;;;22.15;12.52;;;;;;;3.04;64.74;99435.94;4828783;29;20057;-81
2022/04/01 00:19:31;;;;;;;23.00;12.60;;;;;;;2.77;64.57;99389.25;4850427;29;20029;-81
2022/04/01 00:21:57;;;;;;;21.48;13.07;;;;;;;2.71;64.56;99400.31;4844913;29;20042;-78
2022/04/01 00:24:24;;;;;;;23.73;13.05;;;;;;;2.80;64.65;99416.69;4851448;29;20045;-80
2022/04/01 06:09:49;;;;;;;7.00;5.10;;;;;;;3.85;61.79;99585.56;5256680;23;20061;-80
2022/04/01 06:12:56;;;;;;;5.30;4.03;;;;;;;3.47;61.50;99534.34;4878725;29;20063;-80
2022/04/01 06:16:20;;;;;;;8.80;4.43;;;;;;;3.77;61.54;99563.97;4852872;29;20591;-81
2022/04/01 06:19:09;;;;;;;9.18;5.38;;;;;;;3.83;61.25;99578.63;4848777;29;20072;-78
2022/04/01 06:21:43;;;;;;;6.90;4.72;;;;;;;3.80;60.76;99584.59;4869890;29;20063;-79
2022/04/01 06:24:30;;;;;;;7.50;4.32;;;;;;;3.74;59.96;99581.94;4868907;29;20635;-81
2022/04/01 06:27:01;;;;;;;6.03;4.55;;;;;;;3.84;61.21;99562.34;4839529;29;20703;-80
2022/04/01 06:29:57;;;;;;;6.75;4.53;;;;;;;3.98;61.30;99559.97;4862399;29;20058;-80
2022/04/01 06:32:33;;;;;;;5.95;4.20;;;;;;;4.24;60.83;99577.50;4890284;29;20071;-81
2022/04/01 06:35:11;;;;;;;6.35;4.50;;;;;;;4.45;60.22;99575.19;4872890;29;20184;-80
2022/04/01 06:38:02;;;;;;;6.18;4.20;;;;;;;4.36;59.82;99575.94;4874715;29;20057;-83
2022/04/01 06:40:42;;;;;;;7.00;4.28;;;;;;;4.41;60.50;99588.88;4864507;29;20071;-84
2022/04/01 06:43:08;;;;;;;6.40;4.38;;;;;;;4.38;59.40;99583.69;4865514;29;20064;-79
2022/04/01 06:46:07;;;;;;;8.02;4.72;;;;;;;4.36;60.33;99588.81;4832430;29;20224;-81
2022/04/01 06:48:45;;;;;;;6.47;4.57;;;;;;;4.42;59.57;99590.59;4857001;29;20045;-79
2022/04/01 06:51:34;;;;;;;6.85;4.80;;;;;;;4.22;59.14;99573.19;4859997;29;20050;-79
2022/04/01 06:54:19;;;;;;;15.23;8.93;;;;;;;4.44;59.93;99591.50;4858317;29;20500;-80
2022/04/01 06:57:04;;;;;;;16.85;10.48;;;;;;;4.47;59.78;99577.78;4854924;29;20549;-79
2022/04/01 06:59:44;;;;;;;9.38;6.35;;;;;;;4.71;59.65;99586.66;4860915;29;20045;-80
2022/04/01 07:02:13;;;;;;;10.10;7.07;;;;;;;4.55;58.17;99580.44;4863020;29;20088;-79
2022/04/01 07:04:39;;;;;;;7.20;5.40;;;;;;;4.41;59.40;99582.88;4855204;29;20053;-80
2022/04/01 07:07:07;;;;;;;8.20;5.57;;;;;;;4.50;58.95;99585.56;4867637;29;20048;-80
2022/04/01 07:09:36;;;;;;;11.43;7.72;;;;;;;4.61;59.75;99580.53;4880396;29;20067;-79
2022/04/01 07:12:03;;;;;;;12.52;8.77;;;;;;;4.73;59.52;99572.06;4875694;29;20068;-79
2022/04/01 07:14:31;;;;;;;9.52;6.78;;;;;;;4.78;58.43;99557.53;4861269;29;20131;-79
2022/04/01 07:16:59;;;;;;;9.68;7.60;;;;;;;4.52;58.58;99527.16;4860980;29;20049;-82
2022/04/01 07:19:25;;;;;;;11.60;7.68;;;;;;;4.42;56.91;99533.94;4882715;29;20043;-79
2022/04/01 07:21:52;;;;;;;13.18;7.43;;;;;;;4.55;58.23;99580.44;4881062;29;20041;-79
2022/04/01 07:24:18;;;;;;;20.08;13.25;;;;;;;4.63;58.55;99578.84;4850922;29;20120;-82
2022/04/01 07:26:47;;;;;;;80.45;46.13;;;;;;;4.87;57.84;99575.66;4854300;29;20077;-79
2022/04/01 07:29:13;;;;;;;15.63;10.70;;;;;;;4.91;57.74;99564.53;4851888;29;20052;-80
2022/04/01 07:34:38;;;;;;;7.93;5.82;;;;;;;4.86;56.70;99560.19;4871144;29;20560;-78
2022/04/01 07:37:05;;;;;;;10.00;5.75;;;;;;;4.85;57.89;99563.59;4860457;29;20052;-80
2022/04/01 07:39:32;;;;;;;9.55;5.97;;;;;;;5.19;57.89;99576.81;4887206;29;20064;-78
2022/04/01 07:41:59;;;;;;;9.23;5.88;;;;;;;5.35;58.21;99555.50;4843792;29;20045;-79
2022/04/01 07:44:26;;;;;;;6.63;4.72;;;;;;;5.49;57.04;99553.03;4828182;29;20049;-78
2022/04/01 07:46:53;;;;;;;32.30;16.83;;;;;;;5.62;56.39;99584.97;4841371;29;20068;-80
2022/04/01 07:49:19;;;;;;;11.70;7.82;;;;;;;5.63;56.63;99571.19;4852207;29;20039;-80
2022/04/01 07:51:48;;;;;;;7.18;5.10;;;;;;;5.44;56.32;99585.66;4870481;29;21029;-79
2022/04/01 07:54:16;;;;;;;6.57;4.57;;;;;;;5.43;55.63;99577.03;4854864;29;20041;-80
2022/04/01 07:56:44;;;;;;;8.10;5.18;;;;;;;5.19;55.07;99562.22;4852747;29;20136;-76
2022/04/01 07:59:14;;;;;;;8.98;6.28;;;;;;;5.23;55.57;99557.94;4869295;29;20055;-79
2022/04/01 08:01:40;;;;;;;6.18;4.63;;;;;;;5.28;53.98;99577.81;4870730;29;20072;-79
2022/04/01 08:04:08;;;;;;;10.07;5.32;;;;;;;5.13;55.92;99559.59;4871773;29;20044;-80
2022/04/01 08:06:34;;;;;;;7.63;4.53;;;;;;;5.31;55.59;99566.63;4856065;29;20373;-80
2022/04/01 08:09:03;;;;;;;4.85;3.58;;;;;;;5.37;55.91;99551.22;4855279;29;20064;-81
2022/04/01 08:11:29;;;;;;;6.53;4.40;;;;;;;5.54;54.72;99555.63;4870317;29;20053;-82
2022/04/01 08:14:00;;;;;;;6.72;4.07;;;;;;;5.73;55.33;99552.34;4858913;29;20049;-83
2022/04/01 08:16:26;;;;;;;5.90;3.72;;;;;;;5.54;54.11;99529.81;4865613;29;20053;-84
2022/04/01 08:18:52;;;;;;;6.78;4.60;;;;;;;5.56;55.42;99504.91;4840492;29;20043;-83
2022/04/01 08:21:18;;;;;;;9.23;4.35;;;;;;;6.44;54.53;99551.88;4840232;29;20121;-80
2022/04/01 08:23:45;;;;;;;5.80;4.00;;;;;;;6.85;53.84;99546.81;4870034;29;20066;-81
2022/04/01 08:26:12;;;;;;;5.47;3.88;;;;;;;7.01;52.41;99546.03;4850651;29;20045;-81
2022/04/01 08:28:40;;;;;;;5.70;3.92;;;;;;;7.14;52.65;99572.78;4860139;29;20064;-81
2022/04/01 08:31:10;;;;;;;5.07;3.80;;;;;;;7.14;50.96;99562.44;4871625;29;20045;-80
2022/04/01 08:33:37;;;;;;;5.72;3.47;;;;;;;7.04;51.24;99539.97;4847397;29;20478;-81
2022/04/01 08:36:04;;;;;;;5.68;3.75;;;;;;;7.47;52.03;99578.84;4871441;29;20075;-82
2022/04/01 08:38:32;;;;;;;5.85;3.72;;;;;;;7.72;50.42;99562.44;4871330;29;20072;-81
2022/04/01 08:40:58;;;;;;;4.82;3.88;;;;;;;7.75;51.08;99557.22;4850029;29;20038;-81
2022/04/01 08:43:27;;;;;;;6.78;4.00;;;;;;;8.08;49.36;99577.03;4856116;29;20080;-78
2022/04/01 08:45:56;;;;;;;5.28;3.55;;;;;;;8.20;50.06;99572.72;4868687;29;20317;-80
2022/04/01 08:48:22;;;;;;;6.65;3.58;;;;;;;8.32;49.16;99554.50;4853664;29;20080;-79
2022/04/01 08:50:50;;;;;;;5.85;3.47;;;;;;;8.34;49.04;99557.97;4870562;29;20156;-79
2022/04/01 08:53:16;;;;;;;6.55;4.00;;;;;;;8.82;48.57;99572.47;4872570;29;20128;-79
2022/04/01 08:55:51;;;;;;;7.43;3.90;;;;;;;9.19;48.46;99562.75;4868985;29;20047;-80
2022/04/01 08:58:20;;;;;;;5.05;2.85;;;;;;;8.93;47.18;99547.34;4865374;29;20041;-78
2022/04/01 09:00:47;;;;;;;4.45;3.40;;;;;;;9.24;45.95;99556.66;4878748;29;20033;-79
2022/04/01 09:03:16;;;;;;;5.65;4.22;;;;;;;9.12;45.99;99583.56;4871410;29;20049;-80
2022/04/01 09:05:53;;;;;;;6.00;3.78;;;;;;;8.89;46.35;99581.97;4854193;29;20049;-79
2022/04/01 09:08:41;;;;;;;5.93;3.75;;;;;;;8.79;44.99;99585.47;4856430;29;20167;-78
2022/04/01 09:11:18;;;;;;;5.20;3.70;;;;;;;9.14;46.08;99576.63;4851819;29;20041;-76
2022/04/01 09:13:45;;;;;;;7.03;3.70;;;;;;;9.61;45.97;99572.78;4871093;29;20041;-79
2022/04/01 09:16:31;;;;;;;4.95;3.45;;;;;;;9.65;44.20;99560.66;4855628;29;20438;-79
2022/04/01 09:19:00;;;;;;;4.70;3.60;;;;;;;9.82;44.65;99557.88;4857637;29;20049;-78
2022/04/01 09:21:32;;;;;;;5.25;3.65;;;;;;;10.50;44.23;99549.38;4861350;29;20048;-79
2022/04/01 09:24:00;;;;;;;7.18;3.92;;;;;;;10.88;43.32;99548.91;4858030;29;20049;-80
2022/04/01 09:26:32;;;;;;;5.32;3.63;;;;;;;11.65;42.25;99552.03;4832989;29;20395;-79
2022/04/01 09:28:59;;;;;;;4.53;3.00;;;;;;;12.20;41.20;99555.41;4834788;29;20044;-79
2022/04/01 09:31:31;;;;;;;3.97;3.40;;;;;;;13.25;40.61;99552.28;4871797;29;20037;-81
2022/04/01 09:33:57;;;;;;;3.75;2.88;;;;;;;13.65;39.84;99551.34;4869981;29;20053;-81
2022/04/01 09:36:33;;;;;;;4.22;2.70;;;;;;;13.92;38.69;99546.28;4844962;29;20061;-82
2022/04/01 09:39:12;;;;;;;4.25;2.72;;;;;;;14.36;37.45;99551.19;4844389;29;20056;-79
2022/04/01 09:41:42;;;;;;;4.68;3.17;;;;;;;14.64;36.40;99539.94;4850300;29;20124;-80
2022/04/01 09:44:22;;;;;;;4.25;2.90;;;;;;;14.99;35.73;99532.78;4873952;29;20045;-79
2022/04/01 09:46:50;;;;;;;3.20;2.80;;;;;;;14.89;35.51;99544.47;4834235;29;20048;-79
2022/04/01 09:49:39;;;;;;;3.15;2.85;;;;;;;15.03;33.75;99544.00;4873959;29;20523;-80
2022/04/01 09:52:13;;;;;;;4.30;3.40;;;;;;;15.18;35.00;99542.66;4876747;29;20069;-78
2022/04/01 09:54:43;;;;;;;4.18;3.47;;;;;;;15.04;34.27;99528.25;4860682;29;20064;-80
2022/04/01 09:57:14;;;;;;;5.00;4.05;;;;;;;14.38;33.13;99544.16;4875427;29;20045;-85
2022/04/01 09:59:42;;;;;;;6.25;4.60;;;;;;;13.55;33.00;99535.03;4837073;29;20048;-78
2022/04/01 10:02:09;;;;;;;6.57;4.95;;;;;;;12.92;34.14;99524.28;4854393;29;20056;-77
2022/04/01 10:04:35;;;;;;;5.65;3.67;;;;;;;13.06;35.97;99494.41;4856107;29;20076;-79
2022/04/01 10:07:03;;;;;;;4.43;3.17;;;;;;;14.05;34.93;99515.41;4868541;29;20140;-82
2022/04/01 10:09:30;;;;;;;3.03;2.70;;;;;;;14.37;34.00;99515.41;4873281;29;20565;-80
2022/04/01 10:12:01;;;;;;;3.15;2.80;;;;;;;14.82;33.96;99506.25;4858679;29;20045;-80
2022/04/01 10:14:27;;;;;;;3.80;2.80;;;;;;;14.89;33.02;99516.50;4839124;29;20412;-79
2022/04/01 10:17:03;;;;;;;4.53;3.00;;;;;;;15.02;33.36;99503.88;4873277;29;20049;-80
2022/04/01 10:19:32;;;;;;;4.32;3.20;;;;;;;15.56;32.76;99495.97;4873492;29;20049;-77
2022/04/01 10:21:59;;;;;;;5.13;3.75;;;;;;;15.86;31.79;99500.25;4846623;29;20037;-79
2022/04/01 10:24:44;;;;;;;3.80;3.40;;;;;;;15.45;31.95;99503.34;4866785;29;20450;-78
2022/04/01 10:27:21;;;;;;;5.00;3.47;;;;;;;15.29;32.37;99471.56;4879071;29;20045;-78
2022/04/01 10:29:48;;;;;;;4.43;3.03;;;;;;;15.27;31.94;99494.34;4872252;29;20048;-80
2022/04/01 10:32:28;;;;;;;3.67;3.25;;;;;;;14.97;31.76;99491.81;4849140;29;20179;-83
2022/04/01 10:35:03;;;;;;;5.30;3.70;;;;;;;14.44;32.66;99496.88;4855129;29;20056;-82
2022/04/01 10:37:31;;;;;;;6.28;3.97;;;;;;;13.88;32.92;99494.09;4881743;29;20060;-81
2022/04/01 10:40:16;;;;;;;4.72;3.88;;;;;;;13.35;32.96;99479.78;4859658;29;20187;-81
2022/04/01 10:42:44;;;;;;;6.05;4.65;;;;;;;12.73;33.78;99426.41;4851127;29;20138;-81
2022/04/01 10:45:19;;;;;;;5.55;3.97;;;;;;;12.96;33.98;99492.00;4864564;29;20120;-81
2022/04/01 10:53:53;;;;;;;5.03;4.03;;;;;;;12.53;33.83;99432.09;4866252;29;20167;-82
2022/04/01 10:56:26;;;;;;;4.57;3.83;;;;;;;13.05;33.64;99464.81;4859299;29;20037;-80
2022/04/01 10:59:04;;;;;;;7.60;5.68;;;;;;;13.24;34.13;99466.97;4872975;29;20043;-80
2022/04/01 11:01:31;;;;;;;7.03;5.13;;;;;;;13.39;34.14;99460.47;4854749;29;20056;-82
2022/04/01 11:04:14;;;;;;;5.65;4.50;;;;;;;13.33;33.95;99464.13;4839988;29;20501;-82
2022/04/01 11:07:11;;;;;;;6.25;4.80;;;;;;;13.04;33.67;99459.63;4870946;29;20061;-81
2022/04/01 11:10:00;;;;;;;5.85;4.30;;;;;;;12.64;33.84;99425.75;4843321;29;20057;-82
2022/04/01 11:12:34;;;;;;;5.78;3.67;;;;;;;12.38;33.64;99459.41;4850930;29;20049;-81
2022/04/01 11:15:16;;;;;;;3.55;3.13;;;;;;;12.18;34.42;99453.69;4869271;29;20049;-82
2022/04/01 11:18:02;;;;;;;5.45;3.30;;;;;;;11.90;34.14;99445.56;4868492;29;20057;-79
2022/04/01 11:20:31;;;;;;;6.30;3.20;;;;;;;11.59;34.33;99407.06;4857576;29;20052;-81
2022/04/01 11:23:02;;;;;;;4.25;3.30;;;;;;;11.38;34.74;99390.94;4834489;29;20072;-83
2022/04/01 11:25:31;;;;;;;4.70;3.10;;;;;;;11.62;34.89;99442.63;4867258;29;20464;-81
2022/04/01 11:28:03;;;;;;;3.78;3.13;;;;;;;11.47;34.46;99443.78;4856039;29;20588;-80
2022/04/01 11:30:42;;;;;;;4.60;3.28;;;;;;;11.11;33.95;99441.78;4868472;29;20073;-82
2022/04/01 11:33:15;;;;;;;5.72;3.08;;;;;;;10.84;34.44;99434.41;4866811;29;20112;-81
2022/04/01 11:35:50;;;;;;;4.30;3.20;;;;;;;10.76;34.39;99422.41;4860093;29;20048;-82
2022/04/01 11:38:21;;;;;;;4.68;3.28;;;;;;;10.50;34.91;99405.44;4860834;29;20046;-83
2022/04/01 11:40:51;;;;;;;5.38;3.88;;;;;;;10.28;34.03;99382.31;4855637;29;20045;-79
2022/04/01 11:43:21;;;;;;;4.97;3.13;;;;;;;10.03;35.86;99393.03;4850989;29;20045;-81
2022/04/01 11:45:48;;;;;;;4.38;3.45;;;;;;;10.12;35.85;99383.41;4857963;29;20060;-82
2022/04/01 11:48:22;;;;;;;3.90;2.90;;;;;;;10.43;35.71;99402.06;4865699;29;20057;-82
2022/04/01 11:51:03;;;;;;;5.68;3.53;;;;;;;10.51;35.09;99391.56;4856589;29;20040;-81
2022/04/01 11:53:35;;;;;;;4.77;3.47;;;;;;;10.56;34.67;99366.34;4855468;29;20064;-80
2022/04/01 11:56:04;;;;;;;4.80;3.53;;;;;;;10.48;35.06;99407.19;4875218;29;20369;-81
2022/04/01 11:58:36;;;;;;;4.60;3.22;;;;;;;9.77;35.44;99407.22;4868842;29;20057;-79
2022/04/01 12:01:03;;;;;;;3.90;3.00;;;;;;;9.65;34.80;99390.03;4886030;29;20029;-81
2022/04/01 12:03:30;;;;;;;5.38;2.90;;;;;;;9.42;36.22;99395.50;4891438;29;20081;-80
2022/04/01 12:08:41;;;;;;;3.85;3.08;;;;;;;9.30;36.27;99348.88;4868782;29;20061;-80
2022/04/01 12:09:17;;;;;;;5.45;3.00;;;;;;;9.35;36.42;99365.28;4872099;29;20041;-82
2022/04/01 12:11:53;;;;;;;3.72;2.92;;;;;;;9.16;35.75;99336.03;4856824;29;20191;-80
2022/04/01 12:14:26;;;;;;;4.75;2.72;;;;;;;9.24;36.17;99351.56;4880650;29;20045;-82
2022/04/01 12:16:53;;;;;;;3.70;3.08;;;;;;;9.50;36.09;99377.22;4873831;29;20040;-82
2022/04/01 12:19:23;;;;;;;4.78;3.47;;;;;;;9.19;35.76;99336.88;4840635;29;20041;-82
2022/04/01 12:22:00;;;;;;;5.03;2.90;;;;;;;9.47;35.67;99369.47;4863393;29;20053;-83
2022/04/01 12:24:33;;;;;;;3.97;2.92;;;;;;;9.26;36.26;99363.63;4850294;29;20104;-82
2022/04/01 12:27:04;;;;;;;5.93;3.22;;;;;;;8.77;36.05;99301.81;4873994;29;20041;-82
2022/04/01 12:29:31;;;;;;;3.95;2.60;;;;;;;9.15;36.25;99373.28;4870587;29;20433;-82
2022/04/01 12:32:02;;;;;;;4.00;2.80;;;;;;;9.22;36.18;99374.91;4856361;29;20131;-82
2022/04/01 12:34:36;;;;;;;3.85;2.85;;;;;;;8.99;36.53;99349.19;4854354;29;20088;-81
2022/04/01 12:37:05;;;;;;;;;;;;;;;9.12;36.03;99370.72;4846309;29;20114;-82
2022/04/01 12:39:39;;;;;;;7.00;3.20;;;;;;;9.02;35.59;99352.63;4858694;29;19939;-82
2022/04/01 12:42:11;;;;;;;4.88;4.05;;;;;;;8.95;36.33;99368.28;4856014;29;20413;-82
2022/04/01 12:44:44;;;;;;;3.58;2.78;;;;;;;8.88;36.72;99357.09;4860947;29;20236;-80
2022/04/01 12:47:26;;;;;;;4.15;2.75;;;;;;;8.54;36.02;99311.56;4841822;29;20135;-80
2022/04/01 12:49:55;;;;;;;3.65;2.97;;;;;;;8.72;36.56;99367.56;4869894;29;20045;-83
2022/04/01 12:52:24;;;;;;;5.20;3.85;;;;;;;8.43;36.43;99368.66;4871270;29;20052;-81
2022/04/01 12:54:53;;;;;;;6.25;4.72;;;;;;;8.24;37.16;99354.94;4870212;29;20048;-83
2022/04/01 12:57:20;;;;;;;4.03;2.90;;;;;;;7.81;37.25;99291.31;4855435;29;20053;-83
2022/04/01 12:59:51;;;;;;;5.60;3.20;;;;;;;8.27;37.52;99354.06;4861750;29;20108;-84
2022/04/01 13:02:18;;;;;;;5.80;3.80;;;;;;;8.28;37.33;99348.00;4874231;29;20053;-81
2022/04/01 13:04:50;;;;;;;4.97;3.30;;;;;;;7.96;37.48;99297.25;4871848;29;20550;-81
2022/04/01 13:07:19;;;;;;;4.97;3.08;;;;;;;8.14;37.55;99348.94;4860280;29;20070;-81
2022/04/01 13:09:45;;;;;;;3.40;2.60;;;;;;;7.99;37.56;99344.72;4874720;29;20061;-80
2022/04/01 13:12:12;;;;;;;4.97;2.60;;;;;;;7.94;37.75;99345.63;4874017;29;20151;-79
2022/04/01 13:14:39;;;;;;;4.53;2.90;;;;;;;7.71;37.26;99325.88;4861663;29;20135;-80
2022/04/01 13:17:15;;;;;;;3.63;2.60;;;;;;;7.61;38.22;99306.09;4889017;29;20112;-82
2022/04/01 13:22:41;;;;;;;3.97;2.83;;;;;;;7.53;38.01;99334.56;4880416;29;20037;-80
2022/04/01 13:25:08;;;;;;;3.40;2.90;;;;;;;7.22;38.49;99286.38;4869498;29;20068;-82
2022/04/01 13:27:35;;;;;;;6.13;3.40;;;;;;;7.47;38.63;99324.25;4880737;29;20087;-81
2022/04/01 13:30:05;;;;;;;4.07;3.10;;;;;;;7.36;38.20;99324.31;4870333;29;20044;-82
2022/04/01 13:32:31;;;;;;;3.60;2.67;;;;;;;7.33;38.66;99332.06;4870605;29;20048;-81
2022/04/01 13:34:57;;;;;;;4.72;3.20;;;;;;;7.19;39.00;99309.66;4853093;29;20041;-82
2022/04/01 13:37:23;;;;;;;5.50;3.35;;;;;;;7.08;38.70;99311.44;4854962;29;20523;-80
2022/04/01 13:39:50;;;;;;;4.70;3.38;;;;;;;7.01;38.75;99325.22;4869735;29;20048;-82
2022/04/01 13:42:17;;;;;;;6.47;3.42;;;;;;;6.71;39.06;99306.34;4858709;29;20037;-82
2022/04/01 13:44:46;;;;;;;4.57;2.90;;;;;;;6.24;39.29;99267.56;4842697;29;20539;-83
2022/04/01 13:47:12;;;;;;;4.53;2.80;;;;;;;6.68;39.42;99320.09;4841950;29;20056;-83
2022/04/01 13:49:39;;;;;;;4.70;2.72;;;;;;;6.36;39.06;99264.13;4853314;29;20128;-81
2022/04/01 13:52:08;;;;;;;4.35;3.08;;;;;;;6.77;39.32;99333.03;4856040;29;20124;-83
2022/04/01 13:54:33;;;;;;;5.57;3.00;;;;;;;6.56;40.06;99333.91;4858065;29;20170;-84
2022/04/01 13:57:00;;;;;;;3.13;2.63;;;;;;;6.44;40.04;99333.91;4840621;29;20139;-82
2022/04/01 13:59:26;;;;;;;5.70;3.28;;;;;;;6.19;40.45;99318.38;4869520;29;20049;-82
2022/04/01 14:01:53;;;;;;;4.55;2.70;;;;;;;6.31;40.36;99328.72;4852666;29;20101;-83
2022/04/01 14:04:20;;;;;;;7.15;3.03;;;;;;;5.82;40.24;99269.22;4857619;29;20051;-83
2022/04/01 14:06:49;;;;;;;5.35;2.53;;;;;;;6.06;40.66;99293.41;4841020;29;20045;-82
2022/04/01 14:09:18;;;;;;;4.63;3.53;;;;;;;6.23;40.60;99339.91;4838302;29;20792;-82
2022/04/01 14:11:45;;;;;;;6.35;3.22;;;;;;;6.10;40.62;99339.00;4875709;29;20044;-83
2022/04/01 14:14:12;;;;;;;5.20;3.17;;;;;;;5.90;41.02;99289.88;4875029;29;20612;-83
2022/04/01 14:16:39;;;;;;;4.75;3.03;;;;;;;5.96;40.25;99320.91;4860322;29;20060;-82
2022/04/01 14:19:06;;;;;;;3.55;2.38;;;;;;;5.75;41.54;99296.72;4854976;29;20083;-81
2022/04/01 14:21:33;;;;;;;4.25;2.60;;;;;;;5.70;41.06;99281.22;4871382;29;20095;-80
2022/04/01 14:24:01;;;;;;;4.03;2.33;;;;;;;5.80;41.04;99307.94;4872500;29;20045;-80
2022/04/01 14:26:28;;;;;;;4.07;2.40;;;;;;;5.55;40.50;99270.88;4859174;29;20041;-79
2022/04/01 14:30:15;;;;;;;7.20;3.10;;;;;;;5.70;41.59;99301.03;4892028;29;20041;-81
2022/04/01 14:31:57;;;;;;;5.47;3.50;;;;;;;5.53;40.96;99324.19;4869328;29;20051;-80
2022/04/01 14:34:32;;;;;;;11.97;6.40;;;;;;;5.49;41.53;99315.59;4876715;29;20045;-80
2022/04/01 14:36:59;;;;;;;7.57;5.38;;;;;;;5.51;41.63;99300.97;4875313;29;20301;-82
2022/04/01 14:39:27;;;;;;;6.35;4.47;;;;;;;5.20;41.16;99250.94;4863783;29;20708;-81
2022/04/01 14:41:53;;;;;;;4.10;2.58;;;;;;;5.67;41.29;99317.34;4876553;29;20052;-82
2022/04/01 14:44:21;;;;;;;3.78;2.50;;;;;;;5.57;41.21;99313.03;4857842;29;20041;-80
2022/04/01 14:46:48;;;;;;;4.75;2.70;;;;;;;5.36;40.36;99299.19;4871679;29;20049;-83
2022/04/01 14:49:15;;;;;;;6.25;3.20;;;;;;;5.17;41.23;99285.31;4857346;29;21258;-79
2022/04/01 14:51:40;;;;;;;7.13;3.30;;;;;;;5.40;41.86;99313.84;4842451;29;20037;-80
2022/04/01 14:54:07;;;;;;;3.83;2.60;;;;;;;5.33;41.87;99295.72;4863345;29;20200;-81
2022/04/01 14:56:38;;;;;;;5.75;3.05;;;;;;;5.43;41.53;99326.72;4855497;29;20055;-81
2022/04/01 14:59:05;;;;;;;5.55;2.90;;;;;;;5.31;41.79;99292.25;4852870;29;20041;-81
2022/04/01 15:01:31;;;;;;;7.07;3.70;;;;;;;5.43;40.80;99320.72;4852092;29;20051;-81
2022/04/01 15:03:58;;;;;;;4.50;2.60;;;;;;;5.31;41.54;99294.84;4852654;29;20048;-82
2022/04/01 15:06:25;;;;;;;7.40;2.33;;;;;;;5.45;41.79;99311.25;4854475;29;20056;-80
2022/04/01 15:08:51;;;;;;;4.60;2.75;;;;;;;5.54;41.71;99323.34;4852131;29;20068;-80
2022/04/01 15:11:17;;;;;;;4.90;2.55;;;;;;;5.54;41.24;99323.34;4838734;29;20211;-81
2022/04/01 15:13:46;;;;;;;6.50;2.35;;;;;;;5.43;41.47;99318.13;4855579;29;20101;-80
2022/04/01 15:16:12;;;;;;;6.88;2.92;;;;;;;5.41;41.49;99318.09;4868373;29;20041;-81
2022/04/01 15:18:40;;;;;;;4.28;2.20;;;;;;;5.37;41.54;99306.06;4841423;29;20049;-79
2022/04/01 15:21:07;;;;;;;4.35;2.28;;;;;;;5.34;41.70;99316.38;4850673;29;20433;-80
2022/04/01 15:23:33;;;;;;;3.72;2.10;;;;;;;5.13;41.41;99287.03;4868169;29;20040;-80
2022/04/01 15:26:00;;;;;;;3.70;2.17;;;;;;;5.26;41.75;99328.38;4854693;29;20071;-79
2022/04/01 15:28:27;;;;;;;5.47;2.33;;;;;;;5.16;41.83;99313.72;4840718;29;20400;-80
2022/04/01 15:30:53;;;;;;;4.07;2.30;;;;;;;5.28;42.13;99326.66;4874290;29;20044;-81
2022/04/01 15:33:19;;;;;;;6.72;2.40;;;;;;;5.13;41.98;99307.69;4835400;29;20556;-79
2022/04/01 15:35:49;;;;;;;5.65;2.40;;;;;;;5.25;41.78;99330.09;4871875;29;20041;-79
2022/04/01 15:38:16;;;;;;;3.50;2.30;;;;;;;5.21;42.17;99328.34;4863264;29;20043;-79
2022/04/01 15:40:42;;;;;;;5.20;2.45;;;;;;;5.15;41.60;99330.88;4877215;29;20093;-82
2022/04/01 15:43:10;;;;;;;5.03;2.20;;;;;;;5.05;42.01;99318.81;4874392;29;20083;-83
2022/04/01 15:45:41;;;;;;;4.38;2.55;;;;;;;5.04;42.20;99329.97;4855464;29;20856;-82
2022/04/01 15:48:10;;;;;;;3.75;2.35;;;;;;;5.13;42.49;99328.31;4868273;29;20075;-82
2022/04/01 15:50:37;;;;;;;3.05;2.05;;;;;;;5.05;41.61;99308.50;4859052;29;20393;-82
2022/04/01 15:53:07;;;;;;;4.25;2.33;;;;;;;5.08;41.95;99335.16;4848806;29;20072;-81
2022/04/01 15:55:34;;;;;;;6.45;2.40;;;;;;;5.01;42.59;99338.53;4855726;29;20044;-80
2022/04/01 15:58:01;;;;;;;3.75;2.20;;;;;;;5.00;42.82;99331.66;4852364;29;20113;-82
2022/04/01 16:00:31;;;;;;;6.55;2.88;;;;;;;4.76;41.97;99286.81;4850294;29;20806;-80
2022/04/01 16:03:01;;;;;;;6.53;2.72;;;;;;;5.05;42.42;99335.13;4839757;29;20048;-81
2022/04/01 16:05:28;;;;;;;5.05;2.55;;;;;;;4.72;42.07;99269.63;4840493;29;20049;-82
2022/04/01 16:07:58;;;;;;;5.35;2.72;;;;;;;4.96;42.74;99324.78;4858763;29;20041;-81
2022/04/01 16:10:30;;;;;;;9.63;3.25;;;;;;;4.89;42.30;99317.84;4867571;29;20120;-79
2022/04/01 16:13:07;;;;;;;4.88;2.60;;;;;;;4.60;42.46;99297.88;4885873;29;20064;-81
2022/04/01 16:15:36;;;;;;;4.55;2.58;;;;;;;4.80;42.63;99336.69;4874461;29;20052;-79
2022/04/01 16:18:03;;;;;;;3.97;2.40;;;;;;;4.87;42.86;99345.31;4884620;29;20070;-82
2022/04/01 16:20:29;;;;;;;5.18;2.63;;;;;;;4.76;43.13;99316.91;4873524;29;20431;-81
2022/04/01 16:22:55;;;;;;;6.20;2.70;;;;;;;4.86;42.34;99322.97;4851849;29;20552;-82
2022/04/01 16:25:21;;;;;;;5.32;2.60;;;;;;;4.72;42.80;99320.28;4858906;29;20052;-81
2022/04/01 16:27:53;;;;;;;9.27;2.88;;;;;;;4.28;43.01;99276.16;4854892;29;20064;-84
2022/04/01 16:30:24;;;;;;;5.97;2.70;;;;;;;4.38;42.98;99308.00;4858414;29;20162;-81
2022/04/01 16:32:50;;;;;;;6.03;2.55;;;;;;;4.40;42.83;99318.34;4848608;29;20598;-81
2022/04/01 16:35:18;;;;;;;3.50;2.28;;;;;;;4.45;43.12;99343.28;4865432;29;20556;-83
2022/04/01 16:37:44;;;;;;;5.18;2.50;;;;;;;4.29;43.61;99295.91;4833975;29;20466;-80
2022/04/01 16:40:10;;;;;;;4.25;2.28;;;;;;;4.31;42.63;99332.84;4848305;29;20048;-81
2022/04/01 16:42:45;;;;;;;5.18;2.15;;;;;;;3.98;44.11;99269.88;4831970;29;20044;-81
2022/04/01 16:45:14;;;;;;;4.45;2.30;;;;;;;4.40;43.47;99334.66;4853355;29;21676;-79
2022/04/01 16:47:47;;;;;;;7.30;2.58;;;;;;;4.45;43.58;99334.69;4870419;29;20033;-80
2022/04/01 16:50:17;;;;;;;4.40;2.60;;;;;;;4.36;43.80;99315.75;4868278;29;20136;-81
2022/04/01 16:52:43;;;;;;;6.20;2.60;;;;;;;4.54;43.43;99332.19;4882470;29;20040;-82
2022/04/01 16:55:09;;;;;;;3.75;2.42;;;;;;;4.32;43.64;99318.25;4848424;29;20508;-81
2022/04/01 16:57:37;;;;;;;4.10;2.10;;;;;;;4.29;43.46;99339.72;4864647;29;20113;-80
2022/04/01 17:00:07;;;;;;;3.30;1.80;;;;;;;4.35;43.68;99338.88;4849124;29;20069;-82
2022/04/01 17:02:34;;;;;;;4.68;1.88;;;;;;;4.30;43.70;99338.84;4838530;29;20112;-81
2022/04/01 17:05:00;;;;;;;5.32;2.40;;;;;;;4.25;43.96;99312.19;4863937;29;20045;-83
2022/04/01 17:12:59;;;;;;;2.90;2.17;;;;;;;4.07;43.68;99311.19;4858650;29;20049;-83
2022/04/01 17:15:25;;;;;;;4.57;2.55;;;;;;;4.12;43.97;99334.38;4854130;29;20059;-80
2022/04/01 17:17:52;;;;;;;3.67;2.45;;;;;;;4.04;44.04;99310.28;4863095;29;20068;-83
2022/04/01 17:20:21;;;;;;;5.15;3.00;;;;;;;3.97;44.32;99299.06;4857565;29;20037;-80
2022/04/01 17:22:48;;;;;;;8.02;4.43;;;;;;;3.73;44.17;99253.34;4860680;29;20049;-82
2022/04/01 17:25:16;;;;;;;4.80;2.97;;;;;;;4.07;44.50;99326.63;4863241;29;20136;-83
2022/04/01 17:27:46;;;;;;;5.13;3.70;;;;;;;3.48;44.27;99232.50;4840389;29;20043;-81
2022/04/01 17:30:15;;;;;;;4.72;3.92;;;;;;;4.07;44.46;99328.34;4850487;29;20407;-83
2022/04/01 17:33:11;;;;;;;5.80;2.70;;;;;;;3.66;44.55;99274.69;4865925;29;20646;-84
2022/04/01 17:35:53;;;;;;;4.38;2.42;;;;;;;3.22;45.06;99186.78;4847099;29;20057;-82
2022/04/01 17:39:15;;;;;;;3.55;2.10;;;;;;;3.66;44.53;99257.56;4825778;29;20052;-83
2022/04/01 17:42:15;;;;;;;3.67;2.20;;;;;;;3.76;44.45;99255.94;4866394;29;20044;-84
2022/04/01 17:44:59;;;;;;;8.98;3.28;;;;;;;3.88;44.83;99253.47;4856650;29;20083;-82
2022/04/01 17:47:36;;;;;;;5.70;2.60;;;;;;;3.61;44.85;99236.06;4832981;29;20049;-83
2022/04/01 17:50:05;;;;;;;8.10;3.38;;;;;;;3.64;45.24;99243.81;4847964;29;20041;-82
2022/04/01 17:52:45;;;;;;;6.63;3.47;;;;;;;4.11;44.61;99329.22;4855640;29;20069;-84
2022/04/01 17:55:40;;;;;;;6.80;2.70;;;;;;;4.14;44.93;99329.28;4870861;29;20045;-86
2022/04/01 17:58:12;;;;;;;3.58;2.30;;;;;;;4.02;44.88;99305.09;4863740;29;20143;-82